createdAt,value
2019-03-31T00:02:02.315Z,10.02
2019-03-31T00:07:04.806Z,9.95
2019-03-31T00:12:07.273Z,9.84
2019-03-31T00:17:09.743Z,9.68
2019-03-31T00:22:12.209Z,9.55
2019-03-31T00:27:14.681Z,9.57
2019-03-31T00:32:17.149Z,9.51
2019-03-31T00:37:19.623Z,9.43
2019-03-31T00:42:22.090Z,9.49
2019-03-31T00:47:24.565Z,9.27
2019-03-31T00:52:27.041Z,9.18
2019-03-31T00:57:29.557Z,8.96
2019-03-31T01:02:32.036Z,8.95
2019-03-31T01:07:34.531Z,8.90
2019-03-31T01:12:36.994Z,8.64
2019-03-31T01:17:39.470Z,8.85
2019-03-31T01:22:41.934Z,8.81
2019-03-31T01:27:44.406Z,8.81
2019-03-31T01:32:46.878Z,8.92
2019-03-31T01:37:49.398Z,8.93
2019-03-31T01:42:51.874Z,8.87
2019-03-31T01:47:54.685Z,8.53
2019-03-31T01:52:57.173Z,8.25
2019-03-31T01:57:59.650Z,8.36
2019-03-31T02:03:02.129Z,8.31
2019-03-31T02:08:04.618Z,8.32
2019-03-31T02:13:07.090Z,8.05
2019-03-31T02:18:09.564Z,8.11
2019-03-31T02:23:12.024Z,8.18
2019-03-31T02:28:14.460Z,7.98
2019-03-31T02:33:16.929Z,7.96
2019-03-31T02:38:19.372Z,7.91
2019-03-31T02:43:21.822Z,7.90
2019-03-31T02:48:24.283Z,7.84
2019-03-31T02:53:26.741Z,7.87
2019-03-31T02:58:29.213Z,7.77
2019-03-31T03:03:31.649Z,7.76
2019-03-31T03:08:34.143Z,7.74
2019-03-31T03:13:40.305Z,7.73
2019-03-31T03:18:42.763Z,7.68
2019-03-31T03:23:45.253Z,7.52
2019-03-31T03:28:47.712Z,7.42
2019-03-31T03:33:50.182Z,7.60
2019-03-31T03:38:52.645Z,7.45
2019-03-31T03:43:59.582Z,7.38
2019-03-31T03:48:57.650Z,7.62
2019-03-31T03:54:00.023Z,7.25
2019-03-31T03:59:02.479Z,7.17
2019-03-31T04:04:05.092Z,7.32
2019-03-31T04:09:07.397Z,7.27
2019-03-31T04:14:09.857Z,7.03
2019-03-31T04:19:12.410Z,7.10
2019-03-31T04:24:14.935Z,7.12
2019-03-31T04:29:17.403Z,7.38
2019-03-31T04:34:19.865Z,7.10
2019-03-31T04:39:22.325Z,6.98
2019-03-31T04:44:24.784Z,7.07
2019-03-31T04:49:27.237Z,6.83
2019-03-31T04:54:29.730Z,7.02
2019-03-31T04:59:32.306Z,7.20
2019-03-31T05:04:34.771Z,6.75
2019-03-31T05:09:37.235Z,6.82
2019-03-31T05:14:39.694Z,6.90
2019-03-31T05:19:42.159Z,7.25
2019-03-31T05:24:44.723Z,7.08
2019-03-31T05:29:47.174Z,7.23
2019-03-31T05:34:49.689Z,7.66
2019-03-31T05:39:52.155Z,7.89
2019-03-31T05:44:54.631Z,7.98
2019-03-31T05:49:57.089Z,8.11
2019-03-31T05:54:59.559Z,8.00
2019-03-31T06:00:02.025Z,8.23
2019-03-31T06:05:04.485Z,8.21
2019-03-31T06:10:06.941Z,8.77
2019-03-31T06:15:09.417Z,9.12
2019-03-31T06:20:11.894Z,9.36
2019-03-31T06:25:14.380Z,9.60
2019-03-31T06:30:16.824Z,9.73
2019-03-31T06:35:19.301Z,9.87
2019-03-31T06:40:24.474Z,10.42
2019-03-31T06:45:26.999Z,10.63
2019-03-31T06:50:29.506Z,11.07
2019-03-31T06:55:31.979Z,11.62
2019-03-31T07:00:34.478Z,12.04
2019-03-31T07:05:36.957Z,12.57
2019-03-31T07:10:39.429Z,13.12
2019-03-31T07:15:41.913Z,13.52
2019-03-31T07:20:44.392Z,13.90
2019-03-31T07:25:46.854Z,14.30
2019-03-31T07:30:49.323Z,14.56
2019-03-31T07:35:51.795Z,14.98
2019-03-31T07:40:54.629Z,15.43
2019-03-31T07:45:56.749Z,15.77
2019-03-31T07:50:59.207Z,16.38
2019-03-31T07:56:01.844Z,17.90
2019-03-31T08:01:04.305Z,20.84
2019-03-31T08:06:06.784Z,26.31
2019-03-31T08:11:09.270Z,32.93
2019-03-31T08:16:11.777Z,35.93
2019-03-31T08:21:14.239Z,38.43
2019-03-31T08:26:16.735Z,40.94
2019-03-31T08:31:19.278Z,43.02
2019-03-31T08:36:21.756Z,43.71
2019-03-31T08:41:24.233Z,44.77
2019-03-31T08:46:26.734Z,44.14
2019-03-31T08:51:29.233Z,45.28
2019-03-31T08:56:31.746Z,45.18
2019-03-31T09:01:34.205Z,47.33
2019-03-31T09:06:36.713Z,47.34
2019-03-31T09:11:39.203Z,49.41
2019-03-31T09:16:42.883Z,48.13
2019-03-31T09:21:45.278Z,47.26
2019-03-31T09:26:47.765Z,48.13
2019-03-31T09:31:52.838Z,48.37
2019-03-31T09:36:55.326Z,49.60
2019-03-31T09:41:57.828Z,48.92
2019-03-31T09:47:00.307Z,50.33
2019-03-31T09:52:02.784Z,51.00
2019-03-31T09:57:05.252Z,50.20
2019-03-31T10:02:07.717Z,48.39
2019-03-31T10:07:10.191Z,49.28
2019-03-31T10:12:12.674Z,51.46
2019-03-31T10:17:15.136Z,50.05
2019-03-31T10:22:17.606Z,51.02
2019-03-31T10:27:20.073Z,51.25
2019-03-31T10:32:22.546Z,50.11
2019-03-31T10:37:25.022Z,51.23
2019-03-31T10:42:27.499Z,51.42
2019-03-31T10:47:29.952Z,51.70
2019-03-31T10:52:32.426Z,50.96
2019-03-31T10:57:34.891Z,50.37
2019-03-31T11:02:37.354Z,49.72
2019-03-31T11:07:39.936Z,48.63
2019-03-31T11:12:42.397Z,48.07
2019-03-31T11:17:44.895Z,43.27
2019-03-31T11:22:50.358Z,43.36
2019-03-31T11:27:52.816Z,43.07
2019-03-31T11:32:55.281Z,43.77
2019-03-31T11:37:57.746Z,37.14
2019-03-31T11:43:00.224Z,32.88
2019-03-31T11:48:02.700Z,31.32
2019-03-31T11:53:05.199Z,29.55
2019-03-31T11:58:07.800Z,28.44
2019-03-31T12:03:10.360Z,28.12
2019-03-31T12:08:12.807Z,27.82
2019-03-31T12:13:15.280Z,26.62
2019-03-31T12:18:17.797Z,26.64
2019-03-31T12:23:20.280Z,27.00
2019-03-31T12:28:22.775Z,27.89
2019-03-31T12:33:25.255Z,28.11
2019-03-31T12:38:27.716Z,28.00
2019-03-31T12:43:30.277Z,28.33
2019-03-31T12:48:32.759Z,25.25
2019-03-31T12:53:35.333Z,24.21
2019-03-31T12:58:37.811Z,24.20
2019-03-31T13:03:40.302Z,24.50
2019-03-31T13:08:42.800Z,24.15
2019-03-31T13:13:45.243Z,23.36
2019-03-31T13:18:47.712Z,23.25
2019-03-31T13:23:50.226Z,23.46
2019-03-31T13:28:52.722Z,24.72
2019-03-31T13:33:55.222Z,25.26
2019-03-31T13:38:57.689Z,25.73
2019-03-31T13:44:00.166Z,25.17
2019-03-31T13:49:02.644Z,24.03
2019-03-31T13:54:05.098Z,23.39
2019-03-31T13:59:09.225Z,22.85
2019-03-31T14:04:10.095Z,22.51
2019-03-31T14:09:12.592Z,22.44
2019-03-31T14:14:15.150Z,22.50
2019-03-31T14:19:17.537Z,22.82
2019-03-31T14:24:19.998Z,23.32
2019-03-31T14:29:22.479Z,23.36
2019-03-31T14:34:24.989Z,23.64
2019-03-31T14:39:27.471Z,23.63
2019-03-31T14:44:29.929Z,23.33
2019-03-31T14:49:32.403Z,23.24
2019-03-31T14:54:34.910Z,23.48
2019-03-31T14:59:37.403Z,23.53
2019-03-31T15:04:39.871Z,23.18
2019-03-31T15:09:42.335Z,23.11
2019-03-31T15:14:44.814Z,23.31
2019-03-31T15:19:47.283Z,23.36
2019-03-31T15:24:49.761Z,23.39
2019-03-31T15:29:52.206Z,23.36
2019-03-31T15:34:54.682Z,23.32
2019-03-31T15:39:58.267Z,23.08
2019-03-31T15:44:59.729Z,23.38
2019-03-31T15:50:02.206Z,23.57
2019-03-31T15:55:04.664Z,23.43
2019-03-31T16:00:07.346Z,22.88
2019-03-31T16:05:12.557Z,22.66
2019-03-31T16:10:12.074Z,22.66
2019-03-31T16:15:14.551Z,22.31
2019-03-31T16:20:17.045Z,22.12
2019-03-31T16:25:22.411Z,21.79
2019-03-31T16:30:24.884Z,21.54
2019-03-31T16:35:27.387Z,21.31
2019-03-31T16:40:29.857Z,21.05
2019-03-31T16:45:32.346Z,20.79
2019-03-31T16:50:34.821Z,20.62
2019-03-31T16:55:37.309Z,20.40
2019-03-31T17:00:39.779Z,20.12
2019-03-31T17:05:42.248Z,20.00
2019-03-31T17:10:44.748Z,19.82
2019-03-31T17:15:47.201Z,19.70
2019-03-31T17:20:49.674Z,19.53
2019-03-31T17:25:52.152Z,19.32
2019-03-31T17:30:54.632Z,19.18
2019-03-31T17:35:57.120Z,19.02
2019-03-31T17:40:59.613Z,18.85
2019-03-31T17:46:02.070Z,18.68
2019-03-31T17:51:04.532Z,18.50
2019-03-31T17:56:07.008Z,18.35
2019-03-31T18:01:09.509Z,18.18
2019-03-31T18:06:11.999Z,18.00
2019-03-31T18:11:14.506Z,17.70
2019-03-31T18:16:16.973Z,17.46
2019-03-31T18:21:19.470Z,17.19
2019-03-31T18:26:21.954Z,17.04
2019-03-31T18:31:24.445Z,16.80
2019-03-31T18:36:36.397Z,16.84
2019-03-31T18:41:29.457Z,16.90
2019-03-31T18:46:31.958Z,16.74
2019-03-31T18:51:34.442Z,16.71
2019-03-31T18:56:42.930Z,16.62
2019-03-31T19:01:45.428Z,16.61
2019-03-31T19:06:56.749Z,16.64
2019-03-31T19:12:17.419Z,16.62
2019-03-31T19:17:19.900Z,16.38
2019-03-31T19:22:34.357Z,16.25
2019-03-31T19:27:49.066Z,16.05
2019-03-31T19:32:51.546Z,15.98
2019-03-31T19:37:54.040Z,15.91
2019-03-31T19:43:02.433Z,15.82
2019-03-31T19:48:07.784Z,15.80
2019-03-31T19:53:26.499Z,15.82
2019-03-31T19:58:29.026Z,15.80
2019-03-31T20:03:31.485Z,15.75
2019-03-31T20:08:33.964Z,15.71
2019-03-31T20:13:45.479Z,15.72
2019-03-31T20:18:57.012Z,15.56
2019-03-31T20:23:59.493Z,15.40
2019-03-31T20:29:07.910Z,15.34
2019-03-31T20:34:16.395Z,15.27
2019-03-31T20:39:37.375Z,15.10
2019-03-31T20:44:39.898Z,15.10
2019-03-31T20:49:42.390Z,15.14
2019-03-31T20:54:44.873Z,15.16
2019-03-31T20:59:47.484Z,15.33
2019-03-31T21:04:49.835Z,15.19
2019-03-31T21:09:52.329Z,15.08
2019-03-31T21:14:54.804Z,14.95
2019-03-31T21:19:58.390Z,14.77
2019-03-31T21:25:00.977Z,14.77
2019-03-31T21:30:03.454Z,14.88
2019-03-31T21:35:05.938Z,14.77
2019-03-31T21:40:08.424Z,14.70
2019-03-31T21:45:10.901Z,14.74
2019-03-31T21:50:13.394Z,14.68
2019-03-31T21:55:15.893Z,14.56
2019-03-31T22:00:18.374Z,14.54
2019-03-31T22:05:20.883Z,14.35
2019-03-31T22:10:23.394Z,14.33
2019-03-31T22:15:25.878Z,14.36
2019-03-31T22:20:28.375Z,14.40
2019-03-31T22:25:30.840Z,14.11
2019-03-31T22:30:33.352Z,13.92
2019-03-31T22:35:35.822Z,13.96
2019-03-31T22:40:38.297Z,13.93
2019-03-31T22:45:40.770Z,13.81
2019-03-31T22:50:43.238Z,13.74
2019-03-31T22:55:45.697Z,13.67
2019-03-31T23:00:48.162Z,13.61
2019-03-31T23:05:50.634Z,13.66
2019-03-31T23:10:53.132Z,13.42
2019-03-31T23:15:55.591Z,13.35
2019-03-31T23:20:58.079Z,13.46
2019-03-31T23:26:00.576Z,13.32
2019-03-31T23:31:03.816Z,13.21
2019-03-31T23:36:05.528Z,13.18
2019-03-31T23:41:07.982Z,13.07
2019-03-31T23:46:10.450Z,12.97
2019-03-31T23:51:12.921Z,12.98
2019-03-31T23:56:15.399Z,12.90
